sensor_id;sensor_type;location;lat;lon;timestamp;temperature;humidity
19665;DHT22;9980;51.020;7.772;2023-07-20T00:01:52;19.80;91.50
19665;DHT22;9980;51.020;7.772;2023-07-20T00:04:19;19.80;91.60
19665;DHT22;9980;51.020;7.772;2023-07-20T00:06:46;19.70;91.60
19665;DHT22;9980;51.020;7.772;2023-07-20T00:09:13;19.70;91.70
19665;DHT22;9980;51.020;7.772;2023-07-20T00:11:48;19.60;91.70
19665;DHT22;9980;51.020;7.772;2023-07-20T00:14:19;19.60;91.90
19665;DHT22;9980;51.020;7.772;2023-07-20T00:16:47;19.60;91.90
19665;DHT22;9980;51.020;7.772;2023-07-20T00:19:26;19.50;92.00
19665;DHT22;9980;51.020;7.772;2023-07-20T00:21:55;19.50;92.20
19665;DHT22;9980;51.020;7.772;2023-07-20T00:24:23;19.40;92.20
19665;DHT22;9980;51.020;7.772;2023-07-20T00:26:50;19.40;92.30
19665;DHT22;9980;51.020;7.772;2023-07-20T00:29:18;19.40;92.30
19665;DHT22;9980;51.020;7.772;2023-07-20T00:31:46;19.30;92.40
19665;DHT22;9980;51.020;7.772;2023-07-20T00:34:14;19.30;92.40
19665;DHT22;9980;51.020;7.772;2023-07-20T00:36:41;19.30;92.50
19665;DHT22;9980;51.020;7.772;2023-07-20T00:39:09;19.20;92.70
19665;DHT22;9980;51.020;7.772;2023-07-20T00:41:36;19.30;92.70
19665;DHT22;9980;51.020;7.772;2023-07-20T00:44:04;19.20;92.70
19665;DHT22;9980;51.020;7.772;2023-07-20T00:46:32;19.20;92.60
19665;DHT22;9980;51.020;7.772;2023-07-20T00:49:00;19.20;92.80
19665;DHT22;9980;51.020;7.772;2023-07-20T00:51:27;19.10;92.60
19665;DHT22;9980;51.020;7.772;2023-07-20T00:53:55;19.10;92.70
19665;DHT22;9980;51.020;7.772;2023-07-20T00:56:22;19.10;92.70
19665;DHT22;9980;51.020;7.772;2023-07-20T00:58:51;19.00;92.60
19665;DHT22;9980;51.020;7.772;2023-07-20T01:01:22;19.00;92.70
19665;DHT22;9980;51.020;7.772;2023-07-20T01:03:49;19.00;92.80
19665;DHT22;9980;51.020;7.772;2023-07-20T01:09:16;18.90;93.00
19665;DHT22;9980;51.020;7.772;2023-07-20T01:14:34;18.80;92.80
19665;DHT22;9980;51.020;7.772;2023-07-20T01:17:02;18.80;92.90
19665;DHT22;9980;51.020;7.772;2023-07-20T01:19:30;18.80;93.30
19665;DHT22;9980;51.020;7.772;2023-07-20T01:33:56;18.60;93.60
19665;DHT22;9980;51.020;7.772;2023-07-20T01:36:26;18.60;94.00
19665;DHT22;9980;51.020;7.772;2023-07-20T01:38:56;18.50;94.40
19665;DHT22;9980;51.020;7.772;2023-07-20T01:41:23;18.50;94.30
19665;DHT22;9980;51.020;7.772;2023-07-20T01:43:50;18.50;95.00
19665;DHT22;9980;51.020;7.772;2023-07-20T01:46:17;18.50;94.90
19665;DHT22;9980;51.020;7.772;2023-07-20T01:48:45;18.50;94.90
19665;DHT22;9980;51.020;7.772;2023-07-20T01:51:12;18.50;94.80
19665;DHT22;9980;51.020;7.772;2023-07-20T01:53:39;18.50;95.10
19665;DHT22;9980;51.020;7.772;2023-07-20T01:56:06;18.50;95.30
19665;DHT22;9980;51.020;7.772;2023-07-20T01:58:34;18.50;95.30
19665;DHT22;9980;51.020;7.772;2023-07-20T02:01:01;18.50;95.40
19665;DHT22;9980;51.020;7.772;2023-07-20T02:03:28;18.50;95.40
19665;DHT22;9980;51.020;7.772;2023-07-20T02:05:55;18.60;95.30
19665;DHT22;9980;51.020;7.772;2023-07-20T02:08:25;18.60;95.20
19665;DHT22;9980;51.020;7.772;2023-07-20T02:10:53;18.60;95.30
19665;DHT22;9980;51.020;7.772;2023-07-20T02:13:20;18.60;95.30
19665;DHT22;9980;51.020;7.772;2023-07-20T02:15:47;18.60;95.20
19665;DHT22;9980;51.020;7.772;2023-07-20T02:18:16;18.60;95.10
19665;DHT22;9980;51.020;7.772;2023-07-20T02:20:43;18.60;95.50
19665;DHT22;9980;51.020;7.772;2023-07-20T02:23:09;18.60;95.50
19665;DHT22;9980;51.020;7.772;2023-07-20T02:25:37;18.60;95.60
19665;DHT22;9980;51.020;7.772;2023-07-20T02:28:04;18.60;95.50
19665;DHT22;9980;51.020;7.772;2023-07-20T02:30:33;18.60;95.40
19665;DHT22;9980;51.020;7.772;2023-07-20T02:33:04;18.60;95.50
19665;DHT22;9980;51.020;7.772;2023-07-20T02:35:32;18.60;95.70
19665;DHT22;9980;51.020;7.772;2023-07-20T02:37:59;18.60;95.70
19665;DHT22;9980;51.020;7.772;2023-07-20T02:40:26;18.60;95.90
19665;DHT22;9980;51.020;7.772;2023-07-20T02:42:54;18.60;95.90
19665;DHT22;9980;51.020;7.772;2023-07-20T02:45:21;18.60;95.80
19665;DHT22;9980;51.020;7.772;2023-07-20T02:47:48;18.60;95.90
19665;DHT22;9980;51.020;7.772;2023-07-20T02:50:15;18.60;96.00
19665;DHT22;9980;51.020;7.772;2023-07-20T02:52:42;18.60;96.10
19665;DHT22;9980;51.020;7.772;2023-07-20T02:55:09;18.60;95.90
19665;DHT22;9980;51.020;7.772;2023-07-20T02:57:36;18.60;95.80
19665;DHT22;9980;51.020;7.772;2023-07-20T03:00:04;18.60;95.80
19665;DHT22;9980;51.020;7.772;2023-07-20T03:02:32;18.60;95.80
19665;DHT22;9980;51.020;7.772;2023-07-20T03:04:59;18.60;95.70
19665;DHT22;9980;51.020;7.772;2023-07-20T03:07:30;18.60;95.90
19665;DHT22;9980;51.020;7.772;2023-07-20T03:09:57;18.60;96.00
19665;DHT22;9980;51.020;7.772;2023-07-20T03:12:24;18.60;95.90
19665;DHT22;9980;51.020;7.772;2023-07-20T03:14:51;18.60;95.90
19665;DHT22;9980;51.020;7.772;2023-07-20T03:17:18;18.60;96.00
19665;DHT22;9980;51.020;7.772;2023-07-20T03:19:47;18.60;96.30
19665;DHT22;9980;51.020;7.772;2023-07-20T03:22:14;18.60;96.10
19665;DHT22;9980;51.020;7.772;2023-07-20T03:24:41;18.60;96.30
19665;DHT22;9980;51.020;7.772;2023-07-20T03:27:08;18.60;96.40
19665;DHT22;9980;51.020;7.772;2023-07-20T03:29:35;18.60;96.40
19665;DHT22;9980;51.020;7.772;2023-07-20T03:32:02;18.60;96.50
19665;DHT22;9980;51.020;7.772;2023-07-20T03:34:29;18.60;96.40
19665;DHT22;9980;51.020;7.772;2023-07-20T03:36:56;18.70;96.80
19665;DHT22;9980;51.020;7.772;2023-07-20T03:39:23;18.70;96.80
19665;DHT22;9980;51.020;7.772;2023-07-20T03:41:50;18.70;96.80
19665;DHT22;9980;51.020;7.772;2023-07-20T03:44:17;18.70;96.90
19665;DHT22;9980;51.020;7.772;2023-07-20T03:46:44;18.70;96.90
19665;DHT22;9980;51.020;7.772;2023-07-20T03:49:11;18.70;96.90
19665;DHT22;9980;51.020;7.772;2023-07-20T03:51:38;18.70;96.90
19665;DHT22;9980;51.020;7.772;2023-07-20T03:54:05;18.70;96.90
19665;DHT22;9980;51.020;7.772;2023-07-20T03:56:32;18.70;97.10
19665;DHT22;9980;51.020;7.772;2023-07-20T03:59:02;18.70;97.10
19665;DHT22;9980;51.020;7.772;2023-07-20T04:01:29;18.70;97.30
19665;DHT22;9980;51.020;7.772;2023-07-20T04:03:56;18.70;97.30
19665;DHT22;9980;51.020;7.772;2023-07-20T04:06:24;18.70;97.30
19665;DHT22;9980;51.020;7.772;2023-07-20T04:08:51;18.70;97.20
19665;DHT22;9980;51.020;7.772;2023-07-20T04:11:18;18.70;97.50
19665;DHT22;9980;51.020;7.772;2023-07-20T04:13:45;18.70;97.50
19665;DHT22;9980;51.020;7.772;2023-07-20T04:16:12;18.70;97.60
19665;DHT22;9980;51.020;7.772;2023-07-20T04:18:39;18.70;97.50
19665;DHT22;9980;51.020;7.772;2023-07-20T04:21:08;18.70;97.60
19665;DHT22;9980;51.020;7.772;2023-07-20T04:23:35;18.80;97.80
19665;DHT22;9980;51.020;7.772;2023-07-20T04:26:04;18.80;97.80
19665;DHT22;9980;51.020;7.772;2023-07-20T04:28:31;18.80;97.90
19665;DHT22;9980;51.020;7.772;2023-07-20T04:31:10;18.80;97.80
19665;DHT22;9980;51.020;7.772;2023-07-20T04:33:41;18.80;98.20
19665;DHT22;9980;51.020;7.772;2023-07-20T04:36:08;18.80;98.10
19665;DHT22;9980;51.020;7.772;2023-07-20T04:38:35;18.80;98.00
19665;DHT22;9980;51.020;7.772;2023-07-20T04:41:13;18.90;98.10
19665;DHT22;9980;51.020;7.772;2023-07-20T04:43:43;18.90;98.00
19665;DHT22;9980;51.020;7.772;2023-07-20T04:46:13;18.90;98.20
19665;DHT22;9980;51.020;7.772;2023-07-20T04:48:41;18.90;98.10
19665;DHT22;9980;51.020;7.772;2023-07-20T04:51:08;18.90;98.20
19665;DHT22;9980;51.020;7.772;2023-07-20T04:53:36;18.90;98.20
19665;DHT22;9980;51.020;7.772;2023-07-20T04:56:03;18.90;98.40
19665;DHT22;9980;51.020;7.772;2023-07-20T04:58:30;19.00;98.50
19665;DHT22;9980;51.020;7.772;2023-07-20T05:00:57;19.00;98.60
19665;DHT22;9980;51.020;7.772;2023-07-20T05:03:25;19.00;98.60
19665;DHT22;9980;51.020;7.772;2023-07-20T05:05:52;19.00;98.70
19665;DHT22;9980;51.020;7.772;2023-07-20T05:08:19;19.10;98.50
19665;DHT22;9980;51.020;7.772;2023-07-20T05:10:47;19.00;98.50
19665;DHT22;9980;51.020;7.772;2023-07-20T05:13:14;19.10;98.60
19665;DHT22;9980;51.020;7.772;2023-07-20T05:15:41;19.10;98.50
19665;DHT22;9980;51.020;7.772;2023-07-20T05:18:12;19.10;98.60
19665;DHT22;9980;51.020;7.772;2023-07-20T05:20:39;19.10;98.60
19665;DHT22;9980;51.020;7.772;2023-07-20T05:23:06;19.20;98.40
19665;DHT22;9980;51.020;7.772;2023-07-20T05:25:33;19.20;98.50
19665;DHT22;9980;51.020;7.772;2023-07-20T05:28:00;19.20;98.40
19665;DHT22;9980;51.020;7.772;2023-07-20T05:30:27;19.30;98.50
19665;DHT22;9980;51.020;7.772;2023-07-20T05:32:55;19.30;98.50
19665;DHT22;9980;51.020;7.772;2023-07-20T05:35:22;19.30;98.50
19665;DHT22;9980;51.020;7.772;2023-07-20T05:37:50;19.30;98.40
19665;DHT22;9980;51.020;7.772;2023-07-20T05:40:16;19.40;98.50
19665;DHT22;9980;51.020;7.772;2023-07-20T05:42:48;19.40;98.50
19665;DHT22;9980;51.020;7.772;2023-07-20T05:45:18;19.50;98.60
19665;DHT22;9980;51.020;7.772;2023-07-20T05:47:46;19.50;98.60
19665;DHT22;9980;51.020;7.772;2023-07-20T05:50:13;19.60;98.60
19665;DHT22;9980;51.020;7.772;2023-07-20T05:52:40;19.60;98.40
19665;DHT22;9980;51.020;7.772;2023-07-20T05:55:08;19.70;98.40
19665;DHT22;9980;51.020;7.772;2023-07-20T05:57:35;19.80;98.30
19665;DHT22;9980;51.020;7.772;2023-07-20T06:00:02;19.80;98.10
19665;DHT22;9980;51.020;7.772;2023-07-20T06:02:38;19.80;98.20
19665;DHT22;9980;51.020;7.772;2023-07-20T06:05:07;19.90;98.20
19665;DHT22;9980;51.020;7.772;2023-07-20T06:07:37;20.00;98.30
19665;DHT22;9980;51.020;7.772;2023-07-20T06:10:06;20.10;98.10
19665;DHT22;9980;51.020;7.772;2023-07-20T06:12:33;20.10;98.10
19665;DHT22;9980;51.020;7.772;2023-07-20T06:15:04;20.20;97.80
19665;DHT22;9980;51.020;7.772;2023-07-20T06:17:32;20.30;98.00
19665;DHT22;9980;51.020;7.772;2023-07-20T06:19:59;20.30;97.70
19665;DHT22;9980;51.020;7.772;2023-07-20T06:22:26;20.40;97.70
19665;DHT22;9980;51.020;7.772;2023-07-20T06:24:53;20.50;97.40
19665;DHT22;9980;51.020;7.772;2023-07-20T06:27:20;20.50;97.30
19665;DHT22;9980;51.020;7.772;2023-07-20T06:29:47;20.60;97.20
19665;DHT22;9980;51.020;7.772;2023-07-20T06:32:15;20.70;97.00
19665;DHT22;9980;51.020;7.772;2023-07-20T06:34:42;20.80;96.90
19665;DHT22;9980;51.020;7.772;2023-07-20T06:37:09;20.90;96.90
19665;DHT22;9980;51.020;7.772;2023-07-20T06:39:36;20.90;96.90
19665;DHT22;9980;51.020;7.772;2023-07-20T06:42:06;21.00;96.80
19665;DHT22;9980;51.020;7.772;2023-07-20T06:44:33;21.10;96.30
19665;DHT22;9980;51.020;7.772;2023-07-20T06:47:00;21.20;96.20
19665;DHT22;9980;51.020;7.772;2023-07-20T06:49:27;21.20;96.10
19665;DHT22;9980;51.020;7.772;2023-07-20T06:51:54;21.30;95.90
19665;DHT22;9980;51.020;7.772;2023-07-20T06:54:21;21.30;95.60
19665;DHT22;9980;51.020;7.772;2023-07-20T06:56:50;21.40;95.50
19665;DHT22;9980;51.020;7.772;2023-07-20T06:59:37;21.40;95.30
19665;DHT22;9980;51.020;7.772;2023-07-20T07:02:07;21.50;95.10
19665;DHT22;9980;51.020;7.772;2023-07-20T07:04:41;21.50;95.10
19665;DHT22;9980;51.020;7.772;2023-07-20T07:07:09;21.60;95.10
19665;DHT22;9980;51.020;7.772;2023-07-20T07:09:36;21.70;94.90
19665;DHT22;9980;51.020;7.772;2023-07-20T07:12:04;21.80;95.00
19665;DHT22;9980;51.020;7.772;2023-07-20T07:14:31;21.80;94.40
19665;DHT22;9980;51.020;7.772;2023-07-20T07:16:59;21.90;94.70
19665;DHT22;9980;51.020;7.772;2023-07-20T07:19:31;21.90;94.60
19665;DHT22;9980;51.020;7.772;2023-07-20T07:21:58;22.00;94.40
19665;DHT22;9980;51.020;7.772;2023-07-20T07:24:26;22.10;94.20
19665;DHT22;9980;51.020;7.772;2023-07-20T07:27:00;22.10;93.80
19665;DHT22;9980;51.020;7.772;2023-07-20T07:29:28;22.20;93.80
19665;DHT22;9980;51.020;7.772;2023-07-20T07:31:55;22.20;93.60
19665;DHT22;9980;51.020;7.772;2023-07-20T07:34:22;22.20;93.60
19665;DHT22;9980;51.020;7.772;2023-07-20T07:36:49;22.30;93.30
19665;DHT22;9980;51.020;7.772;2023-07-20T07:39:17;22.30;93.30
19665;DHT22;9980;51.020;7.772;2023-07-20T07:41:47;22.30;93.30
19665;DHT22;9980;51.020;7.772;2023-07-20T07:44:14;22.30;93.20
19665;DHT22;9980;51.020;7.772;2023-07-20T07:46:41;22.30;93.40
19665;DHT22;9980;51.020;7.772;2023-07-20T07:49:08;22.30;93.10
19665;DHT22;9980;51.020;7.772;2023-07-20T07:51:35;22.40;93.20
19665;DHT22;9980;51.020;7.772;2023-07-20T07:54:02;22.40;93.20
19665;DHT22;9980;51.020;7.772;2023-07-20T07:56:29;22.50;93.00
19665;DHT22;9980;51.020;7.772;2023-07-20T07:58:56;22.60;92.80
19665;DHT22;9980;51.020;7.772;2023-07-20T08:01:23;22.70;92.40
19665;DHT22;9980;51.020;7.772;2023-07-20T08:03:51;22.70;92.20
19665;DHT22;9980;51.020;7.772;2023-07-20T08:06:18;22.80;91.70
19665;DHT22;9980;51.020;7.772;2023-07-20T08:08:45;22.90;92.00
19665;DHT22;9980;51.020;7.772;2023-07-20T08:11:12;22.90;91.50
19665;DHT22;9980;51.020;7.772;2023-07-20T08:13:41;23.00;91.30
19665;DHT22;9980;51.020;7.772;2023-07-20T08:16:08;23.00;91.10
19665;DHT22;9980;51.020;7.772;2023-07-20T08:18:35;23.00;90.90
19665;DHT22;9980;51.020;7.772;2023-07-20T08:21:02;23.10;90.90
19665;DHT22;9980;51.020;7.772;2023-07-20T08:23:29;23.10;90.70
19665;DHT22;9980;51.020;7.772;2023-07-20T08:25:56;23.10;90.70
19665;DHT22;9980;51.020;7.772;2023-07-20T08:28:24;23.10;90.60
19665;DHT22;9980;51.020;7.772;2023-07-20T08:30:50;23.10;90.90
19665;DHT22;9980;51.020;7.772;2023-07-20T08:33:18;23.10;90.60
19665;DHT22;9980;51.020;7.772;2023-07-20T08:35:46;23.20;90.60
19665;DHT22;9980;51.020;7.772;2023-07-20T08:38:13;23.20;90.60
19665;DHT22;9980;51.020;7.772;2023-07-20T08:40:42;23.30;91.20
19665;DHT22;9980;51.020;7.772;2023-07-20T08:43:14;23.40;91.40
19665;DHT22;9980;51.020;7.772;2023-07-20T08:45:45;23.50;91.30
19665;DHT22;9980;51.020;7.772;2023-07-20T08:48:15;23.70;90.90
19665;DHT22;9980;51.020;7.772;2023-07-20T08:50:45;23.90;90.60
19665;DHT22;9980;51.020;7.772;2023-07-20T08:53:15;24.00;90.50
19665;DHT22;9980;51.020;7.772;2023-07-20T08:55:45;24.10;90.00
19665;DHT22;9980;51.020;7.772;2023-07-20T08:58:15;24.20;89.30
19665;DHT22;9980;51.020;7.772;2023-07-20T09:00:43;24.20;89.10
19665;DHT22;9980;51.020;7.772;2023-07-20T09:03:14;24.20;89.00
19665;DHT22;9980;51.020;7.772;2023-07-20T09:05:41;24.20;88.60
19665;DHT22;9980;51.020;7.772;2023-07-20T09:08:08;24.10;88.60
19665;DHT22;9980;51.020;7.772;2023-07-20T09:10:35;24.10;88.40
19665;DHT22;9980;51.020;7.772;2023-07-20T09:13:02;24.00;88.50
19665;DHT22;9980;51.020;7.772;2023-07-20T09:15:29;24.00;88.60
19665;DHT22;9980;51.020;7.772;2023-07-20T09:18:01;23.90;88.00
19665;DHT22;9980;51.020;7.772;2023-07-20T09:20:32;23.80;87.10
19665;DHT22;9980;51.020;7.772;2023-07-20T09:23:00;23.70;87.00
19665;DHT22;9980;51.020;7.772;2023-07-20T09:25:32;23.60;87.10
19665;DHT22;9980;51.020;7.772;2023-07-20T09:28:02;23.50;87.80
19665;DHT22;9980;51.020;7.772;2023-07-20T09:30:31;23.50;89.30
19665;DHT22;9980;51.020;7.772;2023-07-20T09:33:00;23.50;88.50
19665;DHT22;9980;51.020;7.772;2023-07-20T09:35:27;23.40;89.50
19665;DHT22;9980;51.020;7.772;2023-07-20T09:38:08;23.40;89.30
19665;DHT22;9980;51.020;7.772;2023-07-20T09:40:39;23.40;88.60
19665;DHT22;9980;51.020;7.772;2023-07-20T09:43:10;23.50;89.10
19665;DHT22;9980;51.020;7.772;2023-07-20T09:45:42;23.50;89.30
19665;DHT22;9980;51.020;7.772;2023-07-20T09:48:12;23.50;89.90
19665;DHT22;9980;51.020;7.772;2023-07-20T09:50:50;23.50;89.80
19665;DHT22;9980;51.020;7.772;2023-07-20T09:53:19;23.60;90.50
19665;DHT22;9980;51.020;7.772;2023-07-20T09:55:47;23.70;90.20
19665;DHT22;9980;51.020;7.772;2023-07-20T09:58:16;23.80;90.30
19665;DHT22;9980;51.020;7.772;2023-07-20T10:00:44;24.00;89.70
19665;DHT22;9980;51.020;7.772;2023-07-20T10:03:21;24.20;89.10
19665;DHT22;9980;51.020;7.772;2023-07-20T10:05:56;24.40;88.10
19665;DHT22;9980;51.020;7.772;2023-07-20T10:08:29;24.60;86.60
19665;DHT22;9980;51.020;7.772;2023-07-20T10:11:00;24.80;84.90
19665;DHT22;9980;51.020;7.772;2023-07-20T10:13:29;24.90;86.00
19665;DHT22;9980;51.020;7.772;2023-07-20T10:16:34;24.90;83.50
19665;DHT22;9980;51.020;7.772;2023-07-20T10:19:42;24.90;83.30
19665;DHT22;9980;51.020;7.772;2023-07-20T10:22:26;24.90;81.70
19665;DHT22;9980;51.020;7.772;2023-07-20T10:24:54;24.90;81.50
19665;DHT22;9980;51.020;7.772;2023-07-20T10:27:23;24.80;81.30
19665;DHT22;9980;51.020;7.772;2023-07-20T10:29:51;24.80;81.30
19665;DHT22;9980;51.020;7.772;2023-07-20T10:32:22;24.70;81.00
19665;DHT22;9980;51.020;7.772;2023-07-20T10:34:52;24.60;82.50
19665;DHT22;9980;51.020;7.772;2023-07-20T10:37:48;24.60;83.10
19665;DHT22;9980;51.020;7.772;2023-07-20T10:43:12;24.50;82.80
19665;DHT22;9980;51.020;7.772;2023-07-20T10:48:24;24.60;83.30
19665;DHT22;9980;51.020;7.772;2023-07-20T10:51:13;24.60;84.30
19665;DHT22;9980;51.020;7.772;2023-07-20T10:53:48;24.80;84.00
19665;DHT22;9980;51.020;7.772;2023-07-20T10:56:20;25.00;82.00
19665;DHT22;9980;51.020;7.772;2023-07-20T10:58:49;25.20;82.20
19665;DHT22;9980;51.020;7.772;2023-07-20T11:01:17;25.30;79.90
19665;DHT22;9980;51.020;7.772;2023-07-20T11:03:49;25.50;81.20
19665;DHT22;9980;51.020;7.772;2023-07-20T11:09:10;25.80;82.10
19665;DHT22;9980;51.020;7.772;2023-07-20T11:11:38;26.00;81.10
19665;DHT22;9980;51.020;7.772;2023-07-20T11:14:07;26.20;79.10
19665;DHT22;9980;51.020;7.772;2023-07-20T11:16:40;26.30;78.50
19665;DHT22;9980;51.020;7.772;2023-07-20T11:19:25;26.50;75.10
19665;DHT22;9980;51.020;7.772;2023-07-20T11:21:57;26.70;74.10
19665;DHT22;9980;51.020;7.772;2023-07-20T11:24:27;26.80;70.90
19665;DHT22;9980;51.020;7.772;2023-07-20T11:26:54;26.80;71.00
19665;DHT22;9980;51.020;7.772;2023-07-20T11:29:23;26.80;70.50
19665;DHT22;9980;51.020;7.772;2023-07-20T11:31:59;26.80;70.30
19665;DHT22;9980;51.020;7.772;2023-07-20T11:34:27;26.80;70.10
19665;DHT22;9980;51.020;7.772;2023-07-20T11:36:57;26.80;70.20
19665;DHT22;9980;51.020;7.772;2023-07-20T11:39:28;26.70;70.40
19665;DHT22;9980;51.020;7.772;2023-07-20T11:41:56;26.70;69.90
19665;DHT22;9980;51.020;7.772;2023-07-20T11:44:26;26.60;70.00
19665;DHT22;9980;51.020;7.772;2023-07-20T11:47:07;26.50;68.80
19665;DHT22;9980;51.020;7.772;2023-07-20T11:49:43;26.40;68.90
19665;DHT22;9980;51.020;7.772;2023-07-20T11:52:15;26.40;68.80
19665;DHT22;9980;51.020;7.772;2023-07-20T11:54:44;26.30;70.20
19665;DHT22;9980;51.020;7.772;2023-07-20T11:57:19;26.30;69.20
19665;DHT22;9980;51.020;7.772;2023-07-20T11:59:56;26.20;68.90
19665;DHT22;9980;51.020;7.772;2023-07-20T12:02:29;26.20;67.80
19665;DHT22;9980;51.020;7.772;2023-07-20T12:04:57;26.20;67.90
19665;DHT22;9980;51.020;7.772;2023-07-20T12:07:26;26.10;68.80
19665;DHT22;9980;51.020;7.772;2023-07-20T12:10:11;26.10;69.00
19665;DHT22;9980;51.020;7.772;2023-07-20T12:12:43;26.10;68.90
19665;DHT22;9980;51.020;7.772;2023-07-20T12:15:14;26.10;70.60
19665;DHT22;9980;51.020;7.772;2023-07-20T12:17:49;26.10;71.00
19665;DHT22;9980;51.020;7.772;2023-07-20T12:23:09;26.20;70.20
19665;DHT22;9980;51.020;7.772;2023-07-20T12:25:41;26.20;70.30
19665;DHT22;9980;51.020;7.772;2023-07-20T12:28:15;26.20;68.80
19665;DHT22;9980;51.020;7.772;2023-07-20T12:30:44;26.20;69.90
19665;DHT22;9980;51.020;7.772;2023-07-20T12:33:11;26.20;70.20
19665;DHT22;9980;51.020;7.772;2023-07-20T12:35:42;26.30;70.50
19665;DHT22;9980;51.020;7.772;2023-07-20T12:38:12;26.30;70.70
19665;DHT22;9980;51.020;7.772;2023-07-20T12:40:39;26.40;70.60
19665;DHT22;9980;51.020;7.772;2023-07-20T12:43:07;26.40;70.00
19665;DHT22;9980;51.020;7.772;2023-07-20T12:45:34;26.40;68.00
19665;DHT22;9980;51.020;7.772;2023-07-20T12:48:01;26.40;67.80
19665;DHT22;9980;51.020;7.772;2023-07-20T12:50:28;26.40;69.10
19665;DHT22;9980;51.020;7.772;2023-07-20T12:52:56;26.40;67.20
19665;DHT22;9980;51.020;7.772;2023-07-20T12:55:23;26.30;67.60
19665;DHT22;9980;51.020;7.772;2023-07-20T12:57:50;26.30;68.10
19665;DHT22;9980;51.020;7.772;2023-07-20T13:00:17;26.20;68.00
19665;DHT22;9980;51.020;7.772;2023-07-20T13:02:44;26.20;68.20
19665;DHT22;9980;51.020;7.772;2023-07-20T13:05:11;26.20;67.60
19665;DHT22;9980;51.020;7.772;2023-07-20T13:07:39;26.20;68.10
19665;DHT22;9980;51.020;7.772;2023-07-20T13:10:10;26.10;67.00
19665;DHT22;9980;51.020;7.772;2023-07-20T13:12:38;26.10;66.80
19665;DHT22;9980;51.020;7.772;2023-07-20T13:15:07;26.10;67.90
19665;DHT22;9980;51.020;7.772;2023-07-20T13:17:36;26.10;67.90
19665;DHT22;9980;51.020;7.772;2023-07-20T13:20:06;26.00;68.40
19665;DHT22;9980;51.020;7.772;2023-07-20T13:22:40;26.10;67.60
19665;DHT22;9980;51.020;7.772;2023-07-20T13:25:08;26.10;67.40
19665;DHT22;9980;51.020;7.772;2023-07-20T13:27:36;26.20;66.40
19665;DHT22;9980;51.020;7.772;2023-07-20T13:30:05;26.20;65.90
19665;DHT22;9980;51.020;7.772;2023-07-20T13:32:36;26.20;65.70
19665;DHT22;9980;51.020;7.772;2023-07-20T13:35:03;26.30;67.80
19665;DHT22;9980;51.020;7.772;2023-07-20T13:37:31;26.30;67.90
19665;DHT22;9980;51.020;7.772;2023-07-20T13:39:58;26.30;67.20
19665;DHT22;9980;51.020;7.772;2023-07-20T13:42:25;26.50;67.40
19665;DHT22;9980;51.020;7.772;2023-07-20T13:44:52;26.50;67.10
19665;DHT22;9980;51.020;7.772;2023-07-20T13:47:19;26.50;67.00
19665;DHT22;9980;51.020;7.772;2023-07-20T13:49:48;26.60;65.50
19665;DHT22;9980;51.020;7.772;2023-07-20T13:52:28;26.70;64.90
19665;DHT22;9980;51.020;7.772;2023-07-20T13:54:58;26.70;66.30
19665;DHT22;9980;51.020;7.772;2023-07-20T13:57:27;26.70;65.40
19665;DHT22;9980;51.020;7.772;2023-07-20T13:59:54;26.70;65.60
19665;DHT22;9980;51.020;7.772;2023-07-20T14:02:21;26.70;66.60
19665;DHT22;9980;51.020;7.772;2023-07-20T14:04:50;26.70;65.50
19665;DHT22;9980;51.020;7.772;2023-07-20T14:07:37;26.70;65.10
19665;DHT22;9980;51.020;7.772;2023-07-20T14:10:05;26.70;64.50
19665;DHT22;9980;51.020;7.772;2023-07-20T14:12:35;26.80;64.10
19665;DHT22;9980;51.020;7.772;2023-07-20T14:15:02;26.80;65.00
19665;DHT22;9980;51.020;7.772;2023-07-20T14:17:30;26.80;63.50
19665;DHT22;9980;51.020;7.772;2023-07-20T14:19:58;26.80;65.20
19665;DHT22;9980;51.020;7.772;2023-07-20T14:22:25;26.80;64.30
19665;DHT22;9980;51.020;7.772;2023-07-20T14:24:53;26.80;65.50
19665;DHT22;9980;51.020;7.772;2023-07-20T14:27:20;26.80;63.60
19665;DHT22;9980;51.020;7.772;2023-07-20T14:29:47;26.70;62.60
19665;DHT22;9980;51.020;7.772;2023-07-20T14:32:15;26.70;63.20
19665;DHT22;9980;51.020;7.772;2023-07-20T14:34:41;26.70;62.10
19665;DHT22;9980;51.020;7.772;2023-07-20T14:37:09;26.60;62.30
19665;DHT22;9980;51.020;7.772;2023-07-20T14:39:35;26.50;62.50
19665;DHT22;9980;51.020;7.772;2023-07-20T14:42:02;26.50;62.80
19665;DHT22;9980;51.020;7.772;2023-07-20T14:44:30;26.60;65.70
19665;DHT22;9980;51.020;7.772;2023-07-20T14:46:57;26.70;63.50
19665;DHT22;9980;51.020;7.772;2023-07-20T14:49:39;26.70;63.00
19665;DHT22;9980;51.020;7.772;2023-07-20T14:52:06;26.80;64.50
19665;DHT22;9980;51.020;7.772;2023-07-20T14:54:37;27.00;65.00
19665;DHT22;9980;51.020;7.772;2023-07-20T14:57:04;27.10;63.30
19665;DHT22;9980;51.020;7.772;2023-07-20T14:59:32;27.30;61.90
19665;DHT22;9980;51.020;7.772;2023-07-20T15:01:59;27.30;60.70
19665;DHT22;9980;51.020;7.772;2023-07-20T15:04:26;27.40;62.30
19665;DHT22;9980;51.020;7.772;2023-07-20T15:06:54;27.40;59.90
19665;DHT22;9980;51.020;7.772;2023-07-20T15:09:21;27.40;60.20
19665;DHT22;9980;51.020;7.772;2023-07-20T15:11:48;27.40;59.80
19665;DHT22;9980;51.020;7.772;2023-07-20T15:14:15;27.40;59.70
19665;DHT22;9980;51.020;7.772;2023-07-20T15:16:42;27.50;58.60
19665;DHT22;9980;51.020;7.772;2023-07-20T15:19:10;27.50;59.70
19665;DHT22;9980;51.020;7.772;2023-07-20T15:21:40;27.50;59.40
19665;DHT22;9980;51.020;7.772;2023-07-20T15:24:07;27.60;59.70
19665;DHT22;9980;51.020;7.772;2023-07-20T15:26:33;27.70;59.70
19665;DHT22;9980;51.020;7.772;2023-07-20T15:29:01;27.80;57.70
19665;DHT22;9980;51.020;7.772;2023-07-20T15:31:28;27.90;57.60
19665;DHT22;9980;51.020;7.772;2023-07-20T15:33:58;28.00;57.80
19665;DHT22;9980;51.020;7.772;2023-07-20T15:36:25;28.00;59.30
19665;DHT22;9980;51.020;7.772;2023-07-20T15:38:52;28.10;58.10
19665;DHT22;9980;51.020;7.772;2023-07-20T15:41:20;28.20;57.60
19665;DHT22;9980;51.020;7.772;2023-07-20T15:43:48;28.20;58.70
19665;DHT22;9980;51.020;7.772;2023-07-20T15:48:47;28.30;56.40
19665;DHT22;9980;51.020;7.772;2023-07-20T15:51:14;28.30;57.30
19665;DHT22;9980;51.020;7.772;2023-07-20T15:53:41;28.30;56.20
19665;DHT22;9980;51.020;7.772;2023-07-20T15:56:08;28.30;56.00
19665;DHT22;9980;51.020;7.772;2023-07-20T15:58:35;28.30;55.60
19665;DHT22;9980;51.020;7.772;2023-07-20T16:01:02;28.20;55.20
19665;DHT22;9980;51.020;7.772;2023-07-20T16:03:29;28.20;55.70
19665;DHT22;9980;51.020;7.772;2023-07-20T16:05:59;28.10;56.20
19665;DHT22;9980;51.020;7.772;2023-07-20T16:08:28;28.10;56.50
19665;DHT22;9980;51.020;7.772;2023-07-20T16:10:55;28.00;55.70
19665;DHT22;9980;51.020;7.772;2023-07-20T16:13:24;28.00;55.00
19665;DHT22;9980;51.020;7.772;2023-07-20T16:15:51;28.00;56.00
19665;DHT22;9980;51.020;7.772;2023-07-20T16:18:20;28.00;55.20
19665;DHT22;9980;51.020;7.772;2023-07-20T16:20:48;28.00;55.20
19665;DHT22;9980;51.020;7.772;2023-07-20T16:23:15;28.00;54.70
19665;DHT22;9980;51.020;7.772;2023-07-20T16:25:45;27.90;54.90
19665;DHT22;9980;51.020;7.772;2023-07-20T16:28:13;27.90;54.90